sensor_id;sensor_type;location;lat;lon;timestamp;P1;durP1;ratioP1;P2;durP2;ratioP2
23080;SDS011;11708;50.570;8.532;2023-05-07T00:00:32;4.13;;;2.70;;
23080;SDS011;11708;50.570;8.532;2023-05-07T00:02:59;3.60;;;2.78;;
23080;SDS011;11708;50.570;8.532;2023-05-07T00:05:24;2.90;;;2.55;;
23080;SDS011;11708;50.570;8.532;2023-05-07T00:07:50;5.30;;;2.92;;
23080;SDS011;11708;50.570;8.532;2023-05-07T00:10:17;3.20;;;2.80;;
23080;SDS011;11708;50.570;8.532;2023-05-07T00:12:43;4.57;;;3.03;;
23080;SDS011;11708;50.570;8.532;2023-05-07T00:15:09;6.88;;;4.38;;
23080;SDS011;11708;50.570;8.532;2023-05-07T00:17:34;3.80;;;3.40;;
23080;SDS011;11708;50.570;8.532;2023-05-07T00:20:00;7.40;;;3.40;;
23080;SDS011;11708;50.570;8.532;2023-05-07T00:22:26;6.20;;;4.00;;
23080;SDS011;11708;50.570;8.532;2023-05-07T00:24:51;5.88;;;3.55;;
23080;SDS011;11708;50.570;8.532;2023-05-07T00:27:17;4.35;;;3.78;;
23080;SDS011;11708;50.570;8.532;2023-05-07T00:29:42;5.57;;;3.33;;
23080;SDS011;11708;50.570;8.532;2023-05-07T00:32:08;5.20;;;3.35;;
23080;SDS011;11708;50.570;8.532;2023-05-07T00:34:33;5.30;;;3.47;;
23080;SDS011;11708;50.570;8.532;2023-05-07T00:36:59;6.60;;;4.03;;
23080;SDS011;11708;50.570;8.532;2023-05-07T00:39:26;3.58;;;3.13;;
23080;SDS011;11708;50.570;8.532;2023-05-07T00:41:51;7.70;;;3.58;;
23080;SDS011;11708;50.570;8.532;2023-05-07T00:44:17;4.90;;;3.70;;
23080;SDS011;11708;50.570;8.532;2023-05-07T00:46:43;3.78;;;3.08;;
23080;SDS011;11708;50.570;8.532;2023-05-07T00:49:11;5.47;;;3.33;;
23080;SDS011;11708;50.570;8.532;2023-05-07T00:51:36;7.15;;;3.80;;
23080;SDS011;11708;50.570;8.532;2023-05-07T00:54:02;4.30;;;3.05;;
23080;SDS011;11708;50.570;8.532;2023-05-07T00:56:28;6.20;;;3.72;;
23080;SDS011;11708;50.570;8.532;2023-05-07T00:58:54;4.90;;;3.58;;
23080;SDS011;11708;50.570;8.532;2023-05-07T01:01:20;6.47;;;4.38;;
23080;SDS011;11708;50.570;8.532;2023-05-07T01:03:46;4.63;;;3.70;;
23080;SDS011;11708;50.570;8.532;2023-05-07T01:06:11;4.47;;;3.88;;
23080;SDS011;11708;50.570;8.532;2023-05-07T01:08:38;4.28;;;3.53;;
23080;SDS011;11708;50.570;8.532;2023-05-07T01:11:06;5.63;;;3.00;;
23080;SDS011;11708;50.570;8.532;2023-05-07T01:13:32;4.47;;;3.13;;
23080;SDS011;11708;50.570;8.532;2023-05-07T01:16:00;3.55;;;3.00;;
23080;SDS011;11708;50.570;8.532;2023-05-07T01:18:25;5.25;;;3.40;;
23080;SDS011;11708;50.570;8.532;2023-05-07T01:20:51;5.72;;;2.70;;
23080;SDS011;11708;50.570;8.532;2023-05-07T01:23:18;3.90;;;2.90;;
23080;SDS011;11708;50.570;8.532;2023-05-07T01:25:50;5.13;;;3.28;;
23080;SDS011;11708;50.570;8.532;2023-05-07T01:28:19;2.80;;;2.60;;
23080;SDS011;11708;50.570;8.532;2023-05-07T01:30:46;8.02;;;2.90;;
23080;SDS011;11708;50.570;8.532;2023-05-07T01:33:15;6.65;;;3.47;;
23080;SDS011;11708;50.570;8.532;2023-05-07T01:35:46;4.68;;;3.13;;
23080;SDS011;11708;50.570;8.532;2023-05-07T01:38:13;5.55;;;3.22;;
23080;SDS011;11708;50.570;8.532;2023-05-07T01:40:39;2.95;;;2.65;;
23080;SDS011;11708;50.570;8.532;2023-05-07T01:43:06;4.28;;;2.88;;
23080;SDS011;11708;50.570;8.532;2023-05-07T01:45:32;6.00;;;3.55;;
23080;SDS011;11708;50.570;8.532;2023-05-07T01:47:58;4.10;;;3.20;;
23080;SDS011;11708;50.570;8.532;2023-05-07T01:50:25;4.32;;;3.28;;
23080;SDS011;11708;50.570;8.532;2023-05-07T01:52:51;3.83;;;3.13;;
23080;SDS011;11708;50.570;8.532;2023-05-07T01:55:17;6.35;;;3.42;;
23080;SDS011;11708;50.570;8.532;2023-05-07T01:57:43;7.70;;;3.22;;
23080;SDS011;11708;50.570;8.532;2023-05-07T02:00:08;4.72;;;3.50;;
23080;SDS011;11708;50.570;8.532;2023-05-07T02:02:34;4.45;;;3.50;;
23080;SDS011;11708;50.570;8.532;2023-05-07T02:05:00;6.28;;;3.80;;
23080;SDS011;11708;50.570;8.532;2023-05-07T02:07:26;5.38;;;4.40;;
23080;SDS011;11708;50.570;8.532;2023-05-07T02:09:53;5.57;;;3.58;;
23080;SDS011;11708;50.570;8.532;2023-05-07T02:12:20;5.05;;;3.95;;
23080;SDS011;11708;50.570;8.532;2023-05-07T02:14:46;7.38;;;3.63;;
23080;SDS011;11708;50.570;8.532;2023-05-07T02:17:11;4.70;;;3.88;;
23080;SDS011;11708;50.570;8.532;2023-05-07T02:19:37;7.57;;;3.85;;
23080;SDS011;11708;50.570;8.532;2023-05-07T02:22:02;5.78;;;3.90;;
23080;SDS011;11708;50.570;8.532;2023-05-07T02:24:28;4.95;;;3.72;;
23080;SDS011;11708;50.570;8.532;2023-05-07T02:26:54;4.72;;;3.70;;
23080;SDS011;11708;50.570;8.532;2023-05-07T02:29:19;4.55;;;3.35;;
23080;SDS011;11708;50.570;8.532;2023-05-07T02:31:45;7.03;;;3.58;;
23080;SDS011;11708;50.570;8.532;2023-05-07T02:34:10;6.28;;;3.47;;
23080;SDS011;11708;50.570;8.532;2023-05-07T02:36:36;6.63;;;4.07;;
23080;SDS011;11708;50.570;8.532;2023-05-07T02:39:01;4.85;;;3.85;;
23080;SDS011;11708;50.570;8.532;2023-05-07T02:41:28;6.22;;;3.85;;
23080;SDS011;11708;50.570;8.532;2023-05-07T02:43:53;4.43;;;3.47;;
23080;SDS011;11708;50.570;8.532;2023-05-07T02:46:19;4.93;;;3.38;;
23080;SDS011;11708;50.570;8.532;2023-05-07T02:48:44;5.55;;;3.28;;
23080;SDS011;11708;50.570;8.532;2023-05-07T02:51:10;3.60;;;3.10;;
23080;SDS011;11708;50.570;8.532;2023-05-07T02:53:35;4.75;;;3.55;;
23080;SDS011;11708;50.570;8.532;2023-05-07T02:56:01;5.10;;;3.58;;
23080;SDS011;11708;50.570;8.532;2023-05-07T02:58:27;3.47;;;3.17;;
23080;SDS011;11708;50.570;8.532;2023-05-07T03:00:53;5.38;;;3.80;;
23080;SDS011;11708;50.570;8.532;2023-05-07T03:03:22;5.57;;;3.40;;
23080;SDS011;11708;50.570;8.532;2023-05-07T03:05:47;3.92;;;3.33;;
23080;SDS011;11708;50.570;8.532;2023-05-07T03:08:13;6.35;;;3.63;;
23080;SDS011;11708;50.570;8.532;2023-05-07T03:10:38;4.95;;;3.10;;
23080;SDS011;11708;50.570;8.532;2023-05-07T03:13:04;6.32;;;3.60;;
23080;SDS011;11708;50.570;8.532;2023-05-07T03:15:30;4.95;;;3.83;;
23080;SDS011;11708;50.570;8.532;2023-05-07T03:17:56;4.53;;;3.50;;
23080;SDS011;11708;50.570;8.532;2023-05-07T03:20:21;3.97;;;3.33;;
23080;SDS011;11708;50.570;8.532;2023-05-07T03:22:47;5.13;;;3.67;;
23080;SDS011;11708;50.570;8.532;2023-05-07T03:25:12;8.48;;;4.15;;
23080;SDS011;11708;50.570;8.532;2023-05-07T03:27:39;5.88;;;3.78;;
23080;SDS011;11708;50.570;8.532;2023-05-07T03:30:06;8.77;;;3.70;;
23080;SDS011;11708;50.570;8.532;2023-05-07T03:32:33;5.60;;;3.65;;
23080;SDS011;11708;50.570;8.532;2023-05-07T03:35:00;4.47;;;3.63;;
23080;SDS011;11708;50.570;8.532;2023-05-07T03:37:26;4.30;;;3.55;;
23080;SDS011;11708;50.570;8.532;2023-05-07T03:39:51;5.63;;;4.05;;
23080;SDS011;11708;50.570;8.532;2023-05-07T03:42:17;6.90;;;4.00;;
23080;SDS011;11708;50.570;8.532;2023-05-07T03:44:42;7.22;;;3.88;;
23080;SDS011;11708;50.570;8.532;2023-05-07T03:47:08;5.45;;;3.65;;
23080;SDS011;11708;50.570;8.532;2023-05-07T03:49:35;6.90;;;4.25;;
23080;SDS011;11708;50.570;8.532;2023-05-07T03:52:00;5.93;;;3.75;;
23080;SDS011;11708;50.570;8.532;2023-05-07T03:54:26;5.03;;;3.95;;
23080;SDS011;11708;50.570;8.532;2023-05-07T03:56:52;5.10;;;3.70;;
23080;SDS011;11708;50.570;8.532;2023-05-07T03:59:17;3.92;;;3.53;;
23080;SDS011;11708;50.570;8.532;2023-05-07T04:01:43;8.75;;;4.05;;
23080;SDS011;11708;50.570;8.532;2023-05-07T04:04:08;6.57;;;4.03;;
23080;SDS011;11708;50.570;8.532;2023-05-07T04:06:34;4.65;;;4.07;;
23080;SDS011;11708;50.570;8.532;2023-05-07T04:08:59;5.40;;;3.65;;
23080;SDS011;11708;50.570;8.532;2023-05-07T04:11:25;6.03;;;4.45;;
23080;SDS011;11708;50.570;8.532;2023-05-07T04:13:50;6.15;;;4.50;;
23080;SDS011;11708;50.570;8.532;2023-05-07T04:16:16;6.35;;;4.28;;
23080;SDS011;11708;50.570;8.532;2023-05-07T04:18:41;6.10;;;4.90;;
23080;SDS011;11708;50.570;8.532;2023-05-07T04:21:14;6.50;;;4.90;;
23080;SDS011;11708;50.570;8.532;2023-05-07T04:23:44;5.95;;;4.47;;
23080;SDS011;11708;50.570;8.532;2023-05-07T04:26:10;4.38;;;3.97;;
23080;SDS011;11708;50.570;8.532;2023-05-07T04:28:36;6.78;;;4.57;;
23080;SDS011;11708;50.570;8.532;2023-05-07T04:31:01;9.95;;;6.15;;
23080;SDS011;11708;50.570;8.532;2023-05-07T04:33:27;7.38;;;5.68;;
23080;SDS011;11708;50.570;8.532;2023-05-07T04:35:52;7.40;;;5.80;;
23080;SDS011;11708;50.570;8.532;2023-05-07T04:38:18;6.68;;;5.85;;
23080;SDS011;11708;50.570;8.532;2023-05-07T04:40:44;8.65;;;6.20;;
23080;SDS011;11708;50.570;8.532;2023-05-07T04:43:09;7.28;;;6.53;;
23080;SDS011;11708;50.570;8.532;2023-05-07T04:45:35;8.52;;;6.95;;
23080;SDS011;11708;50.570;8.532;2023-05-07T04:48:01;10.45;;;7.40;;
23080;SDS011;11708;50.570;8.532;2023-05-07T04:50:27;9.05;;;6.93;;
23080;SDS011;11708;50.570;8.532;2023-05-07T04:52:53;12.15;;;8.25;;
23080;SDS011;11708;50.570;8.532;2023-05-07T04:55:18;12.88;;;7.72;;
23080;SDS011;11708;50.570;8.532;2023-05-07T04:57:44;10.90;;;8.27;;
23080;SDS011;11708;50.570;8.532;2023-05-07T05:00:10;15.23;;;8.40;;
23080;SDS011;11708;50.570;8.532;2023-05-07T05:02:39;12.48;;;7.90;;
23080;SDS011;11708;50.570;8.532;2023-05-07T05:05:04;11.25;;;7.95;;
23080;SDS011;11708;50.570;8.532;2023-05-07T05:07:31;11.35;;;9.05;;
23080;SDS011;11708;50.570;8.532;2023-05-07T05:09:57;9.73;;;7.65;;
23080;SDS011;11708;50.570;8.532;2023-05-07T05:12:23;10.82;;;8.75;;
23080;SDS011;11708;50.570;8.532;2023-05-07T05:14:48;10.20;;;8.20;;
23080;SDS011;11708;50.570;8.532;2023-05-07T05:17:14;12.23;;;7.95;;
23080;SDS011;11708;50.570;8.532;2023-05-07T05:19:40;11.43;;;8.40;;
23080;SDS011;11708;50.570;8.532;2023-05-07T05:22:05;16.25;;;8.75;;
23080;SDS011;11708;50.570;8.532;2023-05-07T05:24:31;11.50;;;8.88;;
23080;SDS011;11708;50.570;8.532;2023-05-07T05:26:57;10.60;;;8.57;;
23080;SDS011;11708;50.570;8.532;2023-05-07T05:29:24;12.98;;;9.30;;
23080;SDS011;11708;50.570;8.532;2023-05-07T05:31:50;13.15;;;9.27;;
23080;SDS011;11708;50.570;8.532;2023-05-07T05:34:15;10.68;;;8.10;;
23080;SDS011;11708;50.570;8.532;2023-05-07T05:36:42;14.57;;;9.93;;
23080;SDS011;11708;50.570;8.532;2023-05-07T05:39:08;11.55;;;9.23;;
23080;SDS011;11708;50.570;8.532;2023-05-07T05:41:33;14.38;;;9.52;;
23080;SDS011;11708;50.570;8.532;2023-05-07T05:43:59;13.15;;;9.52;;
23080;SDS011;11708;50.570;8.532;2023-05-07T05:46:25;13.48;;;10.90;;
23080;SDS011;11708;50.570;8.532;2023-05-07T05:48:50;70.28;;;40.20;;
23080;SDS011;11708;50.570;8.532;2023-05-07T05:51:16;23.63;;;16.25;;
23080;SDS011;11708;50.570;8.532;2023-05-07T05:53:41;16.05;;;11.63;;
23080;SDS011;11708;50.570;8.532;2023-05-07T05:56:07;14.57;;;10.27;;
23080;SDS011;11708;50.570;8.532;2023-05-07T05:58:32;14.98;;;11.23;;
23080;SDS011;11708;50.570;8.532;2023-05-07T06:00:58;18.10;;;12.40;;
23080;SDS011;11708;50.570;8.532;2023-05-07T06:03:23;19.10;;;12.60;;
23080;SDS011;11708;50.570;8.532;2023-05-07T06:05:49;18.00;;;13.35;;
23080;SDS011;11708;50.570;8.532;2023-05-07T06:08:15;15.93;;;12.70;;
23080;SDS011;11708;50.570;8.532;2023-05-07T06:10:40;20.92;;;12.85;;
23080;SDS011;11708;50.570;8.532;2023-05-07T06:13:06;16.80;;;13.07;;
23080;SDS011;11708;50.570;8.532;2023-05-07T06:15:32;19.45;;;13.48;;
23080;SDS011;11708;50.570;8.532;2023-05-07T06:17:57;15.48;;;11.90;;
23080;SDS011;11708;50.570;8.532;2023-05-07T06:20:23;18.00;;;12.75;;
23080;SDS011;11708;50.570;8.532;2023-05-07T06:22:48;15.65;;;11.30;;
23080;SDS011;11708;50.570;8.532;2023-05-07T06:25:14;14.93;;;12.57;;
23080;SDS011;11708;50.570;8.532;2023-05-07T06:27:40;17.77;;;14.25;;
23080;SDS011;11708;50.570;8.532;2023-05-07T06:30:06;17.63;;;13.02;;
23080;SDS011;11708;50.570;8.532;2023-05-07T06:32:32;19.90;;;14.18;;
23080;SDS011;11708;50.570;8.532;2023-05-07T06:34:58;22.27;;;13.32;;
23080;SDS011;11708;50.570;8.532;2023-05-07T06:37:23;20.48;;;15.32;;
23080;SDS011;11708;50.570;8.532;2023-05-07T06:39:49;20.25;;;14.18;;
23080;SDS011;11708;50.570;8.532;2023-05-07T06:42:14;17.27;;;14.50;;
23080;SDS011;11708;50.570;8.532;2023-05-07T06:44:40;17.98;;;13.88;;
23080;SDS011;11708;50.570;8.532;2023-05-07T06:47:05;19.45;;;15.05;;
23080;SDS011;11708;50.570;8.532;2023-05-07T06:49:31;19.15;;;14.23;;
23080;SDS011;11708;50.570;8.532;2023-05-07T06:51:57;18.10;;;13.57;;
23080;SDS011;11708;50.570;8.532;2023-05-07T06:54:23;22.20;;;15.60;;
23080;SDS011;11708;50.570;8.532;2023-05-07T06:56:48;18.15;;;13.88;;
23080;SDS011;11708;50.570;8.532;2023-05-07T06:59:14;19.08;;;14.60;;
23080;SDS011;11708;50.570;8.532;2023-05-07T07:01:40;18.38;;;14.55;;
23080;SDS011;11708;50.570;8.532;2023-05-07T07:04:05;19.33;;;14.63;;
23080;SDS011;11708;50.570;8.532;2023-05-07T07:06:31;19.13;;;15.43;;
23080;SDS011;11708;50.570;8.532;2023-05-07T07:08:57;19.70;;;14.77;;
23080;SDS011;11708;50.570;8.532;2023-05-07T07:11:23;18.05;;;13.85;;
23080;SDS011;11708;50.570;8.532;2023-05-07T07:13:49;20.17;;;15.45;;
23080;SDS011;11708;50.570;8.532;2023-05-07T07:16:15;20.67;;;14.77;;
23080;SDS011;11708;50.570;8.532;2023-05-07T07:18:41;18.20;;;13.98;;
23080;SDS011;11708;50.570;8.532;2023-05-07T07:21:06;18.98;;;15.15;;
23080;SDS011;11708;50.570;8.532;2023-05-07T07:23:32;19.40;;;15.02;;
23080;SDS011;11708;50.570;8.532;2023-05-07T07:25:58;17.45;;;14.13;;
23080;SDS011;11708;50.570;8.532;2023-05-07T07:28:23;35.95;;;25.70;;
23080;SDS011;11708;50.570;8.532;2023-05-07T07:30:49;19.98;;;15.35;;
23080;SDS011;11708;50.570;8.532;2023-05-07T07:33:14;18.45;;;15.32;;
23080;SDS011;11708;50.570;8.532;2023-05-07T07:35:40;18.67;;;14.70;;
23080;SDS011;11708;50.570;8.532;2023-05-07T07:38:06;19.65;;;14.32;;
23080;SDS011;11708;50.570;8.532;2023-05-07T07:40:34;21.38;;;15.27;;
23080;SDS011;11708;50.570;8.532;2023-05-07T07:42:59;18.45;;;14.40;;
23080;SDS011;11708;50.570;8.532;2023-05-07T07:45:26;21.33;;;15.93;;
23080;SDS011;11708;50.570;8.532;2023-05-07T07:47:51;18.70;;;14.82;;
23080;SDS011;11708;50.570;8.532;2023-05-07T07:50:17;21.05;;;14.77;;
23080;SDS011;11708;50.570;8.532;2023-05-07T07:52:43;19.40;;;15.15;;
23080;SDS011;11708;50.570;8.532;2023-05-07T07:55:09;19.30;;;14.43;;
23080;SDS011;11708;50.570;8.532;2023-05-07T07:57:35;20.55;;;14.05;;
23080;SDS011;11708;50.570;8.532;2023-05-07T08:00:00;19.65;;;14.77;;
23080;SDS011;11708;50.570;8.532;2023-05-07T08:02:26;19.63;;;14.70;;
23080;SDS011;11708;50.570;8.532;2023-05-07T08:04:51;21.20;;;14.85;;
23080;SDS011;11708;50.570;8.532;2023-05-07T08:07:17;19.45;;;13.60;;
23080;SDS011;11708;50.570;8.532;2023-05-07T08:09:45;22.23;;;14.70;;
23080;SDS011;11708;50.570;8.532;2023-05-07T08:12:11;19.20;;;12.95;;
23080;SDS011;11708;50.570;8.532;2023-05-07T08:14:37;17.10;;;13.93;;
23080;SDS011;11708;50.570;8.532;2023-05-07T08:17:02;18.25;;;13.40;;
23080;SDS011;11708;50.570;8.532;2023-05-07T08:19:28;18.63;;;13.68;;
23080;SDS011;11708;50.570;8.532;2023-05-07T08:21:53;17.95;;;14.25;;
23080;SDS011;11708;50.570;8.532;2023-05-07T08:24:20;18.25;;;13.05;;
23080;SDS011;11708;50.570;8.532;2023-05-07T08:26:45;17.15;;;13.95;;
23080;SDS011;11708;50.570;8.532;2023-05-07T08:29:11;19.15;;;13.80;;
23080;SDS011;11708;50.570;8.532;2023-05-07T08:31:36;17.58;;;12.85;;
23080;SDS011;11708;50.570;8.532;2023-05-07T08:34:04;18.60;;;13.45;;
23080;SDS011;11708;50.570;8.532;2023-05-07T08:36:30;17.50;;;13.35;;
23080;SDS011;11708;50.570;8.532;2023-05-07T08:38:56;18.23;;;13.35;;
23080;SDS011;11708;50.570;8.532;2023-05-07T08:41:21;16.50;;;12.77;;
23080;SDS011;11708;50.570;8.532;2023-05-07T08:43:48;16.58;;;11.68;;
23080;SDS011;11708;50.570;8.532;2023-05-07T08:46:19;14.35;;;12.10;;
23080;SDS011;11708;50.570;8.532;2023-05-07T08:48:48;15.93;;;11.88;;
23080;SDS011;11708;50.570;8.532;2023-05-07T08:51:18;13.15;;;10.77;;
23080;SDS011;11708;50.570;8.532;2023-05-07T08:53:46;13.52;;;11.35;;
23080;SDS011;11708;50.570;8.532;2023-05-07T08:56:15;14.73;;;11.77;;
23080;SDS011;11708;50.570;8.532;2023-05-07T08:58:42;14.13;;;10.73;;
23080;SDS011;11708;50.570;8.532;2023-05-07T09:01:09;12.73;;;10.85;;
23080;SDS011;11708;50.570;8.532;2023-05-07T09:03:38;16.05;;;11.68;;
23080;SDS011;11708;50.570;8.532;2023-05-07T09:06:04;12.32;;;10.52;;
23080;SDS011;11708;50.570;8.532;2023-05-07T09:08:30;15.15;;;11.80;;
23080;SDS011;11708;50.570;8.532;2023-05-07T09:10:58;12.50;;;10.25;;
23080;SDS011;11708;50.570;8.532;2023-05-07T09:13:23;12.65;;;10.93;;
23080;SDS011;11708;50.570;8.532;2023-05-07T09:15:49;14.40;;;11.82;;
23080;SDS011;11708;50.570;8.532;2023-05-07T09:18:15;14.82;;;10.55;;
23080;SDS011;11708;50.570;8.532;2023-05-07T09:20:40;15.07;;;10.45;;
23080;SDS011;11708;50.570;8.532;2023-05-07T09:23:07;13.90;;;9.65;;
23080;SDS011;11708;50.570;8.532;2023-05-07T09:25:33;13.63;;;10.98;;
23080;SDS011;11708;50.570;8.532;2023-05-07T09:28:00;13.25;;;10.20;;
23080;SDS011;11708;50.570;8.532;2023-05-07T09:30:27;13.63;;;10.90;;
23080;SDS011;11708;50.570;8.532;2023-05-07T09:32:54;12.63;;;10.13;;
23080;SDS011;11708;50.570;8.532;2023-05-07T09:35:20;13.45;;;10.35;;
23080;SDS011;11708;50.570;8.532;2023-05-07T09:37:55;12.18;;;10.50;;
23080;SDS011;11708;50.570;8.532;2023-05-07T09:40:22;12.85;;;9.45;;
23080;SDS011;11708;50.570;8.532;2023-05-07T09:42:49;13.13;;;10.45;;
23080;SDS011;11708;50.570;8.532;2023-05-07T09:45:25;11.20;;;9.93;;
23080;SDS011;11708;50.570;8.532;2023-05-07T09:47:53;12.70;;;10.20;;
23080;SDS011;11708;50.570;8.532;2023-05-07T09:50:21;13.35;;;10.00;;
23080;SDS011;11708;50.570;8.532;2023-05-07T09:53:07;14.55;;;10.18;;
23080;SDS011;11708;50.570;8.532;2023-05-07T09:55:35;12.15;;;10.68;;
23080;SDS011;11708;50.570;8.532;2023-05-07T09:58:01;13.27;;;10.60;;
23080;SDS011;11708;50.570;8.532;2023-05-07T10:00:29;11.73;;;9.73;;
23080;SDS011;11708;50.570;8.532;2023-05-07T10:02:56;12.10;;;9.77;;
23080;SDS011;11708;50.570;8.532;2023-05-07T10:05:22;12.43;;;10.02;;
23080;SDS011;11708;50.570;8.532;2023-05-07T10:07:50;11.27;;;9.18;;
23080;SDS011;11708;50.570;8.532;2023-05-07T10:10:16;13.02;;;9.85;;
23080;SDS011;11708;50.570;8.532;2023-05-07T10:12:42;9.90;;;8.40;;
23080;SDS011;11708;50.570;8.532;2023-05-07T10:15:11;14.93;;;8.90;;
23080;SDS011;11708;50.570;8.532;2023-05-07T10:17:39;10.98;;;8.68;;
23080;SDS011;11708;50.570;8.532;2023-05-07T10:20:06;10.02;;;8.07;;
23080;SDS011;11708;50.570;8.532;2023-05-07T10:22:33;12.18;;;8.50;;
23080;SDS011;11708;50.570;8.532;2023-05-07T10:25:04;12.63;;;8.98;;
23080;SDS011;11708;50.570;8.532;2023-05-07T10:27:36;11.32;;;9.45;;
23080;SDS011;11708;50.570;8.532;2023-05-07T10:32:56;10.82;;;8.27;;
23080;SDS011;11708;50.570;8.532;2023-05-07T10:35:32;9.32;;;8.18;;
23080;SDS011;11708;50.570;8.532;2023-05-07T10:38:03;10.35;;;8.70;;
23080;SDS011;11708;50.570;8.532;2023-05-07T10:40:30;11.35;;;8.82;;
23080;SDS011;11708;50.570;8.532;2023-05-07T10:42:57;13.18;;;8.88;;
23080;SDS011;11708;50.570;8.532;2023-05-07T10:45:28;10.23;;;8.73;;
23080;SDS011;11708;50.570;8.532;2023-05-07T10:50:36;8.85;;;7.88;;
23080;SDS011;11708;50.570;8.532;2023-05-07T10:53:20;7.38;;;6.68;;
23080;SDS011;11708;50.570;8.532;2023-05-07T10:55:47;8.82;;;7.93;;
23080;SDS011;11708;50.570;8.532;2023-05-07T10:58:24;11.63;;;8.13;;
23080;SDS011;11708;50.570;8.532;2023-05-07T11:00:57;10.95;;;7.60;;
23080;SDS011;11708;50.570;8.532;2023-05-07T11:03:24;13.35;;;8.70;;
23080;SDS011;11708;50.570;8.532;2023-05-07T11:17:06;8.70;;;7.45;;
23080;SDS011;11708;50.570;8.532;2023-05-07T11:19:48;8.40;;;7.22;;
23080;SDS011;11708;50.570;8.532;2023-05-07T11:22:35;8.85;;;7.75;;
23080;SDS011;11708;50.570;8.532;2023-05-07T11:25:05;7.60;;;6.53;;
23080;SDS011;11708;50.570;8.532;2023-05-07T11:27:31;7.72;;;6.88;;
23080;SDS011;11708;50.570;8.532;2023-05-07T11:29:58;8.10;;;7.22;;
23080;SDS011;11708;50.570;8.532;2023-05-07T11:32:24;9.48;;;7.32;;
23080;SDS011;11708;50.570;8.532;2023-05-07T11:34:52;8.65;;;6.65;;
23080;SDS011;11708;50.570;8.532;2023-05-07T11:37:20;7.45;;;6.70;;
23080;SDS011;11708;50.570;8.532;2023-05-07T11:39:47;8.07;;;7.03;;
23080;SDS011;11708;50.570;8.532;2023-05-07T11:42:25;9.38;;;7.07;;
23080;SDS011;11708;50.570;8.532;2023-05-07T11:44:54;9.18;;;6.68;;
23080;SDS011;11708;50.570;8.532;2023-05-07T11:47:20;7.93;;;6.90;;
23080;SDS011;11708;50.570;8.532;2023-05-07T11:49:47;8.93;;;6.57;;
23080;SDS011;11708;50.570;8.532;2023-05-07T11:52:14;7.68;;;6.88;;
23080;SDS011;11708;50.570;8.532;2023-05-07T11:54:40;9.02;;;7.30;;
23080;SDS011;11708;50.570;8.532;2023-05-07T11:57:06;9.90;;;7.15;;
23080;SDS011;11708;50.570;8.532;2023-05-07T11:59:41;10.55;;;7.13;;
23080;SDS011;11708;50.570;8.532;2023-05-07T12:02:09;7.55;;;6.25;;
23080;SDS011;11708;50.570;8.532;2023-05-07T12:04:35;7.13;;;6.38;;
23080;SDS011;11708;50.570;8.532;2023-05-07T12:07:01;7.75;;;6.45;;
23080;SDS011;11708;50.570;8.532;2023-05-07T12:09:26;7.50;;;6.40;;
23080;SDS011;11708;50.570;8.532;2023-05-07T12:11:52;8.23;;;6.03;;
23080;SDS011;11708;50.570;8.532;2023-05-07T12:14:18;9.32;;;6.28;;
23080;SDS011;11708;50.570;8.532;2023-05-07T12:16:44;6.85;;;6.10;;
23080;SDS011;11708;50.570;8.532;2023-05-07T12:19:10;7.57;;;6.00;;
23080;SDS011;11708;50.570;8.532;2023-05-07T12:21:37;7.18;;;6.18;;
23080;SDS011;11708;50.570;8.532;2023-05-07T12:24:04;6.68;;;5.85;;
23080;SDS011;11708;50.570;8.532;2023-05-07T12:26:30;6.30;;;5.70;;
23080;SDS011;11708;50.570;8.532;2023-05-07T12:28:57;9.30;;;6.78;;
23080;SDS011;11708;50.570;8.532;2023-05-07T12:31:22;6.80;;;5.80;;
23080;SDS011;11708;50.570;8.532;2023-05-07T12:33:51;7.28;;;6.47;;
23080;SDS011;11708;50.570;8.532;2023-05-07T12:36:16;5.95;;;5.38;;
23080;SDS011;11708;50.570;8.532;2023-05-07T12:38:42;7.13;;;6.32;;
23080;SDS011;11708;50.570;8.532;2023-05-07T12:41:08;7.50;;;6.03;;
23080;SDS011;11708;50.570;8.532;2023-05-07T12:43:36;7.78;;;6.38;;
23080;SDS011;11708;50.570;8.532;2023-05-07T12:46:04;8.27;;;5.95;;
23080;SDS011;11708;50.570;8.532;2023-05-07T12:48:31;6.05;;;5.45;;
23080;SDS011;11708;50.570;8.532;2023-05-07T12:50:57;6.13;;;5.15;;
23080;SDS011;11708;50.570;8.532;2023-05-07T12:53:24;7.32;;;5.40;;
23080;SDS011;11708;50.570;8.532;2023-05-07T12:55:52;8.07;;;5.28;;
23080;SDS011;11708;50.570;8.532;2023-05-07T12:58:25;7.38;;;5.55;;
23080;SDS011;11708;50.570;8.532;2023-05-07T13:00:52;5.85;;;5.25;;
23080;SDS011;11708;50.570;8.532;2023-05-07T13:03:29;5.95;;;5.35;;
23080;SDS011;11708;50.570;8.532;2023-05-07T13:06:03;6.43;;;5.82;;
23080;SDS011;11708;50.570;8.532;2023-05-07T13:08:33;6.00;;;5.40;;
23080;SDS011;11708;50.570;8.532;2023-05-07T13:11:01;6.25;;;5.63;;
23080;SDS011;11708;50.570;8.532;2023-05-07T13:13:29;8.30;;;5.78;;
23080;SDS011;11708;50.570;8.532;2023-05-07T13:15:55;5.65;;;5.13;;
23080;SDS011;11708;50.570;8.532;2023-05-07T13:18:21;5.75;;;5.20;;
23080;SDS011;11708;50.570;8.532;2023-05-07T13:20:47;7.10;;;5.65;;
23080;SDS011;11708;50.570;8.532;2023-05-07T13:23:12;7.13;;;6.43;;
23080;SDS011;11708;50.570;8.532;2023-05-07T13:25:38;6.40;;;5.80;;
23080;SDS011;11708;50.570;8.532;2023-05-07T13:28:03;6.38;;;5.78;;
23080;SDS011;11708;50.570;8.532;2023-05-07T13:30:29;6.30;;;4.60;;
23080;SDS011;11708;50.570;8.532;2023-05-07T13:32:55;6.30;;;5.70;;
23080;SDS011;11708;50.570;8.532;2023-05-07T13:35:21;6.18;;;5.57;;
23080;SDS011;11708;50.570;8.532;2023-05-07T13:37:46;5.30;;;4.80;;
23080;SDS011;11708;50.570;8.532;2023-05-07T13:40:14;5.82;;;5.10;;
23080;SDS011;11708;50.570;8.532;2023-05-07T13:42:40;5.80;;;5.20;;
23080;SDS011;11708;50.570;8.532;2023-05-07T13:45:06;5.97;;;5.43;;
23080;SDS011;11708;50.570;8.532;2023-05-07T13:47:32;6.10;;;5.50;;
23080;SDS011;11708;50.570;8.532;2023-05-07T13:49:58;5.38;;;4.88;;
23080;SDS011;11708;50.570;8.532;2023-05-07T13:52:23;6.57;;;4.80;;
23080;SDS011;11708;50.570;8.532;2023-05-07T13:54:49;5.22;;;4.72;;
23080;SDS011;11708;50.570;8.532;2023-05-07T13:57:14;5.10;;;4.60;;
23080;SDS011;11708;50.570;8.532;2023-05-07T13:59:40;5.90;;;5.13;;
23080;SDS011;11708;50.570;8.532;2023-05-07T14:02:06;6.95;;;4.60;;
23080;SDS011;11708;50.570;8.532;2023-05-07T14:04:31;5.07;;;4.10;;
23080;SDS011;11708;50.570;8.532;2023-05-07T14:06:57;5.07;;;4.57;;
23080;SDS011;11708;50.570;8.532;2023-05-07T14:09:23;6.03;;;4.30;;
23080;SDS011;11708;50.570;8.532;2023-05-07T14:11:48;5.20;;;4.80;;
23080;SDS011;11708;50.570;8.532;2023-05-07T14:14:16;8.40;;;5.13;;
23080;SDS011;11708;50.570;8.532;2023-05-07T14:16:42;5.82;;;5.22;;
23080;SDS011;11708;50.570;8.532;2023-05-07T14:19:08;7.60;;;5.10;;
23080;SDS011;11708;50.570;8.532;2023-05-07T14:21:33;5.80;;;5.03;;
23080;SDS011;11708;50.570;8.532;2023-05-07T14:23:59;5.30;;;4.57;;
23080;SDS011;11708;50.570;8.532;2023-05-07T14:26:25;6.15;;;4.35;;
23080;SDS011;11708;50.570;8.532;2023-05-07T14:28:51;7.63;;;4.78;;
23080;SDS011;11708;50.570;8.532;2023-05-07T14:31:19;5.35;;;4.85;;
23080;SDS011;11708;50.570;8.532;2023-05-07T14:33:45;5.75;;;4.93;;
23080;SDS011;11708;50.570;8.532;2023-05-07T14:36:11;6.63;;;5.07;;
23080;SDS011;11708;50.570;8.532;2023-05-07T14:38:37;5.50;;;5.00;;
23080;SDS011;11708;50.570;8.532;2023-05-07T14:41:03;5.90;;;4.97;;
23080;SDS011;11708;50.570;8.532;2023-05-07T14:43:28;5.40;;;4.90;;
23080;SDS011;11708;50.570;8.532;2023-05-07T14:45:54;7.18;;;4.38;;
23080;SDS011;11708;50.570;8.532;2023-05-07T14:48:19;5.18;;;4.55;;
23080;SDS011;11708;50.570;8.532;2023-05-07T14:50:48;6.57;;;4.40;;